createdAt,value
2023-03-06T00:02:34.000Z,97982.66
2023-03-06T00:07:35.000Z,97981.5
2023-03-06T00:12:35.000Z,97988.49
2023-03-06T00:17:34.000Z,97993.1
2023-03-06T00:22:35.000Z,97990.98
2023-03-06T00:27:34.000Z,97992.17
2023-03-06T00:32:35.000Z,97984.21
2023-03-06T00:37:34.000Z,97987.23
2023-03-06T00:42:35.000Z,97986.52
2023-03-06T00:47:34.000Z,97986.52
2023-03-06T00:52:35.000Z,97986.46
2023-03-06T00:57:34.000Z,97983.19
2023-03-06T01:02:35.000Z,97986.34
2023-03-06T01:07:35.000Z,97990.92
2023-03-06T01:12:34.000Z,97988.96
2023-03-06T01:17:35.000Z,97989.42
2023-03-06T01:22:35.000Z,97995.26
2023-03-06T01:27:35.000Z,97998.37
2023-03-06T01:32:34.000Z,97995.79
2023-03-06T01:37:35.000Z,97995.59
2023-03-06T01:42:34.000Z,97995.59
2023-03-06T01:52:34.000Z,97994.84
2023-03-06T01:57:35.000Z,97997.17
2023-03-06T02:07:34.000Z,98004.42
2023-03-06T02:12:34.000Z,98005.14
2023-03-06T02:17:35.000Z,98006.39
2023-03-06T02:22:34.000Z,98006.39
2023-03-06T02:27:34.000Z,98005.62
2023-03-06T02:37:35.000Z,98007.67
2023-03-06T02:42:35.000Z,98005.92
2023-03-06T02:47:34.000Z,98005.32
2023-03-06T02:52:35.000Z,97999.21
2023-03-06T02:57:34.000Z,97999.21
2023-03-06T03:02:35.000Z,97999.03
2023-03-06T03:07:35.000Z,97997.99
2023-03-06T03:12:34.000Z,98001.82
2023-03-06T03:17:35.000Z,98007.71
2023-03-06T03:22:34.000Z,98009.19
2023-03-06T03:27:35.000Z,98009.67
2023-03-06T03:32:35.000Z,98009.58
2023-03-06T03:37:35.000Z,98010.63
2023-03-06T03:42:34.000Z,98014.68
2023-03-06T03:47:35.000Z,98010.15
2023-03-06T03:52:35.000Z,98019.25
2023-03-06T03:57:35.000Z,98017.78
2023-03-06T04:02:34.000Z,98011.77
2023-03-06T04:07:35.000Z,98018.32
2023-03-06T04:12:35.000Z,98018.32
2023-03-06T04:17:35.000Z,98017.81
2023-03-06T04:22:35.000Z,98025.81
2023-03-06T04:27:34.000Z,98020.91
2023-03-06T04:32:35.000Z,98016.71
2023-03-06T04:37:35.000Z,98013.77
2023-03-06T04:42:35.000Z,98014.88
2023-03-06T04:47:35.000Z,98019.14
2023-03-06T04:52:35.000Z,98020.44
2023-03-06T04:57:35.000Z,98021.58
2023-03-06T05:02:34.000Z,98020.1
2023-03-06T05:07:35.000Z,98019.63
2023-03-06T05:12:34.000Z,98022.04
2023-03-06T05:17:35.000Z,98012.3
2023-03-06T05:22:35.000Z,98025.21
2023-03-06T05:27:34.000Z,98025.21
2023-03-06T05:32:35.000Z,98019.07
2023-03-06T05:37:35.000Z,98018.65
2023-03-06T05:47:35.000Z,98032.64
2023-03-06T05:52:34.000Z,98032.64
2023-03-06T05:57:34.000Z,98036.07
2023-03-06T06:02:35.000Z,98039.53
2023-03-06T06:07:34.000Z,98040.25
2023-03-06T06:12:35.000Z,98038.67
2023-03-06T06:17:34.000Z,98041.73
2023-03-06T06:22:34.000Z,98042.27
2023-03-06T06:27:35.000Z,98044.68
2023-03-06T06:32:35.000Z,98039.07
2023-03-06T06:37:35.000Z,98040.93
2023-03-06T06:42:44.000Z,98042.34
2023-03-06T06:47:36.000Z,98042.34
2023-03-06T06:52:34.000Z,98041.34
2023-03-06T06:57:35.000Z,98046.93
2023-03-06T07:02:34.000Z,98046.93
2023-03-06T07:07:36.000Z,98055.68
2023-03-06T07:12:34.000Z,98056.14
2023-03-06T07:17:35.000Z,98056.21
2023-03-06T07:22:34.000Z,98054.97
2023-03-06T07:27:34.000Z,98052.45
2023-03-06T07:32:35.000Z,98051.97
2023-03-06T07:37:34.000Z,98051.97
2023-03-06T07:42:35.000Z,98055.04
2023-03-06T07:47:35.000Z,98057.26
2023-03-06T07:52:35.000Z,98059.87
2023-03-06T07:57:34.000Z,98063.91
2023-03-06T08:02:35.000Z,98067.62
2023-03-06T08:07:34.000Z,98072.63
2023-03-06T08:12:35.000Z,98077.97
2023-03-06T08:17:35.000Z,98076.37
2023-03-06T08:22:34.000Z,98078.26
2023-03-06T08:27:35.000Z,98078.26
2023-03-06T08:32:35.000Z,98078.09
2023-03-06T08:37:35.000Z,98076.64
2023-03-06T08:42:34.000Z,98078.86
2023-03-06T08:47:35.000Z,98078.86
2023-03-06T08:52:34.000Z,98082.55
2023-03-06T08:57:35.000Z,98085.14
2023-03-06T09:02:35.000Z,98090.51
2023-03-06T09:07:35.000Z,98095.6
2023-03-06T09:12:35.000Z,98091.48
2023-03-06T09:17:35.000Z,98101.34
2023-03-06T09:22:35.000Z,98101.47
2023-03-06T09:27:34.000Z,98102.01
2023-03-06T09:32:35.000Z,98104.11
2023-03-06T09:37:34.000Z,98103.94
2023-03-06T09:42:35.000Z,98103.94
2023-03-06T09:47:35.000Z,98107.57
2023-03-06T09:52:35.000Z,98115.78
2023-03-06T09:57:35.000Z,98117.05
2023-03-06T10:02:35.000Z,98115.05
2023-03-06T10:12:35.000Z,98118.01
2023-03-06T10:17:35.000Z,98113.95
2023-03-06T10:22:35.000Z,98118.77
2023-03-06T10:27:34.000Z,98117.04
2023-03-06T10:32:35.000Z,98116.42
2023-03-06T10:37:35.000Z,98120.67
2023-03-06T10:42:37.000Z,98126.61
2023-03-06T10:47:34.000Z,98132.07
2023-03-06T10:52:35.000Z,98131.47
2023-03-06T10:57:34.000Z,98137.91
2023-03-06T11:02:35.000Z,98137.91
2023-03-06T11:07:36.000Z,98140.13
2023-03-06T11:12:34.000Z,98139.78
2023-03-06T11:27:35.000Z,98131.64
2023-03-06T11:32:34.000Z,98132.62
2023-03-06T11:37:35.000Z,98134.35
2023-03-06T11:42:35.000Z,98134.47
2023-03-06T11:47:35.000Z,98136.41
2023-03-06T11:52:35.000Z,98139.48
2023-03-06T11:57:34.000Z,98137.92
2023-03-06T12:02:35.000Z,98139.13
2023-03-06T12:07:35.000Z,98143.82
2023-03-06T12:12:35.000Z,98155.99
2023-03-06T12:17:35.000Z,98175.03
2023-03-06T12:22:35.000Z,98175.03
2023-03-06T12:27:35.000Z,98175.28
2023-03-06T12:32:34.000Z,98175.27
2023-03-06T12:37:35.000Z,98164.67
2023-03-06T12:42:35.000Z,98166.35
2023-03-06T12:47:35.000Z,98170.46
2023-03-06T12:52:40.000Z,98171.81
2023-03-06T12:57:35.000Z,98170.6
2023-03-06T13:02:35.000Z,98162.06
2023-03-06T13:07:35.000Z,98160.38
2023-03-06T13:12:34.000Z,98167.54
2023-03-06T13:17:35.000Z,98175.96
2023-03-06T13:22:35.000Z,98181.85
2023-03-06T13:27:35.000Z,98187.02
2023-03-06T13:32:34.000Z,98187.02
2023-03-06T13:37:35.000Z,98185.1
2023-03-06T13:42:35.000Z,98198.56
2023-03-06T13:47:35.000Z,98205.56
2023-03-06T13:52:34.000Z,98202.26
2023-03-06T13:57:35.000Z,98203.01
2023-03-06T14:02:34.000Z,98207.46
2023-03-06T14:07:35.000Z,98213.12
2023-03-06T14:12:35.000Z,98215.5
2023-03-06T14:17:35.000Z,98214.74
2023-03-06T14:22:34.000Z,98220.34
2023-03-06T14:32:34.000Z,98224.79
2023-03-06T14:37:34.000Z,98232.39
2023-03-06T14:42:35.000Z,98231.3
2023-03-06T14:47:34.000Z,98232.45
2023-03-06T14:52:35.000Z,98240.5
2023-03-06T15:02:35.000Z,98247.83
2023-03-06T15:07:34.000Z,98257.74
2023-03-06T15:12:35.000Z,98262.2
2023-03-06T15:17:35.000Z,98272.7
2023-03-06T15:22:34.000Z,98276.09
2023-03-06T15:27:35.000Z,98273.06
2023-03-06T15:32:34.000Z,98285.28
2023-03-06T15:37:35.000Z,98291.56
2023-03-06T15:42:34.000Z,98296.6
2023-03-06T15:47:35.000Z,98305.01
2023-03-06T15:52:34.000Z,98307.3
2023-03-06T15:57:35.000Z,98311.45
2023-03-06T16:02:34.000Z,98317.6
2023-03-06T16:07:37.000Z,98317.6
2023-03-06T16:12:35.000Z,98325.12
2023-03-06T16:17:35.000Z,98331.52
2023-03-06T16:22:34.000Z,98336.76
2023-03-06T16:27:35.000Z,98338.81
2023-03-06T16:42:35.000Z,98357.15
2023-03-06T16:47:35.000Z,98362.71
2023-03-06T16:52:35.000Z,98365.35
2023-03-06T16:57:34.000Z,98373.68
2023-03-06T17:02:35.000Z,98373.68
2023-03-06T17:07:34.000Z,98380.33
2023-03-06T17:12:34.000Z,98386.03
2023-03-06T17:22:34.000Z,98404.61
2023-03-06T17:27:35.000Z,98410.03
2023-03-06T17:32:34.000Z,98410.99
2023-03-06T17:37:35.000Z,98414.76
2023-03-06T17:42:35.000Z,98421.71
2023-03-06T17:47:35.000Z,98424.42
2023-03-06T17:52:35.000Z,98426.02
2023-03-06T17:57:34.000Z,98426.02
2023-03-06T18:02:35.000Z,98431.36
2023-03-06T18:07:34.000Z,98437.73
2023-03-06T18:17:35.000Z,98444.44
2023-03-06T18:22:34.000Z,98449.04
2023-03-06T18:27:35.000Z,98456.69
2023-03-06T18:32:35.000Z,98449.75
2023-03-06T18:37:34.000Z,98456.32
2023-03-06T18:42:35.000Z,98460.47
2023-03-06T18:47:35.000Z,98467.15
2023-03-06T18:52:34.000Z,98469.79
2023-03-06T18:57:35.000Z,98476.33
2023-03-06T19:02:35.000Z,98481.2
2023-03-06T19:07:35.000Z,98481.2
2023-03-06T19:12:35.000Z,98483.74
2023-03-06T19:17:35.000Z,98484.19
2023-03-06T19:27:34.000Z,98485.79
2023-03-06T19:32:35.000Z,98489.41
2023-03-06T19:37:34.000Z,98491.44
2023-03-06T19:42:35.000Z,98491.83
2023-03-06T19:47:34.000Z,98503.62
2023-03-06T19:52:35.000Z,98510.54
2023-03-06T19:57:35.000Z,98509.42
2023-03-06T20:02:35.000Z,98509.41
2023-03-06T20:07:35.000Z,98513.96
2023-03-06T20:12:35.000Z,98518.55
2023-03-06T20:17:35.000Z,98518.55
2023-03-06T20:22:35.000Z,98520.09
2023-03-06T20:27:35.000Z,98518.26
2023-03-06T20:32:35.000Z,98519.58
2023-03-06T20:37:35.000Z,98524.64
2023-03-06T20:42:35.000Z,98527.49
2023-03-06T20:47:34.000Z,98527.16
2023-03-06T20:52:35.000Z,98528.09
2023-03-06T20:57:34.000Z,98530.14
2023-03-06T21:02:35.000Z,98528.39
2023-03-06T21:07:34.000Z,98526.93
2023-03-06T21:12:35.000Z,98520.69
2023-03-06T21:17:35.000Z,98522.94
2023-03-06T21:22:35.000Z,98524.03
2023-03-06T21:27:34.000Z,98524.03
2023-03-06T21:32:35.000Z,98527
2023-03-06T21:37:35.000Z,98535.2
2023-03-06T21:42:34.000Z,98538.96
2023-03-06T21:47:35.000Z,98543.93
2023-03-06T21:52:36.000Z,98545.85
2023-03-06T21:57:35.000Z,98543.53
2023-03-06T22:02:35.000Z,98552.4
2023-03-06T22:07:35.000Z,98554.08
2023-03-06T22:12:35.000Z,98554.08
2023-03-06T22:17:34.000Z,98554.57
2023-03-06T22:22:35.000Z,98552.24
2023-03-06T22:27:34.000Z,98548.75
2023-03-06T22:32:35.000Z,98550.25
2023-03-06T22:37:34.000Z,98548.78
2023-03-06T22:42:35.000Z,98551.57
2023-03-06T22:47:34.000Z,98553.82
2023-03-06T22:52:35.000Z,98556.04
2023-03-06T22:57:34.000Z,98551
2023-03-06T23:02:35.000Z,98553.19
2023-03-06T23:07:34.000Z,98545.27
2023-03-06T23:12:34.000Z,98549.66
2023-03-06T23:17:35.000Z,98548.19
2023-03-06T23:22:35.000Z,98545.58
2023-03-06T23:27:34.000Z,98545.58
2023-03-06T23:32:34.000Z,98547.25
2023-03-06T23:37:34.000Z,98546.57
2023-03-06T23:42:35.000Z,98545.69
2023-03-06T23:47:34.000Z,98549.25
2023-03-06T23:52:35.000Z,98549.25
2023-03-06T23:57:34.000Z,98547.67
